Time;durP1;ratioP1;P1;durP2;ratioP2;P2;SDS_P1;SDS_P2;PMS_P1;PMS_P2;Temp;Humidity;BMP_temperature;BMP_pressure;BME280_temperature;BME280_humidity;BME280_pressure;Samples;Min_cycle;Max_cycle;Signal;HPM_P1;HPM_P2
2024/03/03 00:01:44;;;;;;;52.70;28.20;;;;;;;7.08;90.26;99313.29;216877;1263;140077;-74
2024/03/03 00:06:49;;;;;;;45.40;28.90;;;;;;;7.02;89.93;99309.75;216727;1262;141967;-73
2024/03/03 00:11:54;;;;;;;47.10;26.60;;;;;;;6.95;89.72;99305.15;216946;1266;139195;-75
2024/03/03 00:16:59;;;;;;;48.70;26.80;;;;;;;6.89;90.38;99300.41;217129;1262;141091;-77
2024/03/03 00:22:04;;;;;;;44.00;28.70;;;;;;;6.84;90.00;99293.82;217282;1266;139509;-72
2024/03/03 00:27:08;;;;;;;46.30;26.20;;;;;;;6.81;90.14;99292.75;217165;1262;139586;-72
2024/03/03 00:32:13;;;;;;;35.20;24.00;;;;;;;6.77;89.96;99292.95;216705;1262;139904;-73
2024/03/03 00:37:18;;;;;;;55.80;30.10;;;;;;;6.74;90.28;99297.79;216914;1262;139800;-74
2024/03/03 00:42:22;;;;;;;48.50;28.60;;;;;;;6.72;90.50;99288.69;216969;1262;139971;-73
2024/03/03 00:47:29;;;;;;;48.60;27.70;;;;;;;6.69;90.07;99274.92;217053;1264;139830;-72
2024/03/03 00:52:33;;;;;;;45.70;28.00;;;;;;;6.61;90.20;99276.33;216904;1262;139972;-73
2024/03/03 00:57:38;;;;;;;48.00;27.90;;;;;;;6.51;90.02;99273.80;216983;1264;139412;-72
2024/03/03 01:02:43;;;;;;;44.30;26.10;;;;;;;6.44;90.19;99270.36;216802;1266;140676;-74
2024/03/03 01:07:48;;;;;;;47.10;23.70;;;;;;;6.38;89.99;99269.09;217637;1266;140977;-75
2024/03/03 01:12:52;;;;;;;44.80;28.00;;;;;;;6.35;90.48;99275.84;216971;1262;140282;-73
2024/03/03 01:17:57;;;;;;;37.20;23.70;;;;;;;6.34;90.31;99269.61;216790;1262;140209;-76
2024/03/03 01:23:02;;;;;;;44.00;24.60;;;;;;;6.33;90.28;99269.67;216939;1262;141161;-75
2024/03/03 01:28:07;;;;;;;59.80;31.60;;;;;;;6.31;90.93;99262.64;216830;1262;140010;-75
2024/03/03 01:33:11;;;;;;;41.10;25.20;;;;;;;6.34;90.93;99256.35;217001;1264;139746;-75
2024/03/03 01:38:16;;;;;;;52.50;26.20;;;;;;;6.32;91.46;99256.20;217017;1262;141151;-74
2024/03/03 01:43:20;;;;;;;47.80;27.20;;;;;;;6.34;91.49;99251.55;216744;1262;139933;-76
2024/03/03 01:48:25;;;;;;;41.20;22.80;;;;;;;6.34;91.35;99254.15;217222;1262;140443;-75
2024/03/03 01:53:30;;;;;;;44.10;26.20;;;;;;;6.35;92.20;99252.64;216808;1266;140295;-72
2024/03/03 01:58:35;;;;;;;60.00;30.10;;;;;;;6.36;91.83;99249.92;216858;1261;139391;-77
2024/03/03 02:03:39;;;;;;;87.60;38.40;;;;;;;6.38;91.98;99245.67;216773;1266;139640;-75
2024/03/03 02:08:45;;;;;;;54.30;29.50;;;;;;;6.38;92.30;99240.17;216948;1262;141123;-74
2024/03/03 02:13:49;;;;;;;45.20;25.60;;;;;;;6.39;92.17;99235.73;216726;1262;140283;-74
2024/03/03 02:18:53;;;;;;;56.30;31.50;;;;;;;6.41;92.82;99238.10;216868;1262;140420;-73
2024/03/03 02:23:58;;;;;;;39.50;25.80;;;;;;;6.42;92.82;99234.58;217426;1262;139635;-73
2024/03/03 02:29:03;;;;;;;39.60;25.70;;;;;;;6.43;93.02;99239.20;216738;1262;139966;-74
2024/03/03 02:34:08;;;;;;;37.10;23.20;;;;;;;6.45;93.32;99244.27;217824;1262;140932;-74
2024/03/03 02:39:14;;;;;;;49.40;29.20;;;;;;;6.47;92.94;99240.56;217266;1262;140276;-78
2024/03/03 02:44:19;;;;;;;44.90;25.50;;;;;;;6.48;92.95;99238.80;217650;1262;140402;-77
2024/03/03 02:49:22;;;;;;;37.00;25.00;;;;;;;6.47;92.86;99228.25;216801;1262;140679;-73
2024/03/03 02:54:28;;;;;;;46.10;27.90;;;;;;;6.48;93.24;99229.31;216772;1263;141027;-75
2024/03/03 02:59:33;;;;;;;47.80;27.50;;;;;;;6.47;93.20;99225.44;217386;1266;141857;-73
2024/03/03 03:04:38;;;;;;;36.10;25.40;;;;;;;6.46;93.73;99222.97;216517;1262;141252;-74
2024/03/03 03:09:45;;;;;;;46.50;28.30;;;;;;;6.45;93.01;99224.52;216938;1262;139966;-75
2024/03/03 03:14:49;;;;;;;;;;;;;;;6.44;93.47;99224.24;217282;1262;139833;-74
2024/03/03 03:19:55;;;;;;;45.00;24.20;;;;;;;6.41;93.63;99219.20;217272;1267;125642;-74
2024/03/03 03:24:59;;;;;;;39.70;26.80;;;;;;;6.42;93.34;99222.28;216616;1262;141850;-75
2024/03/03 03:30:06;;;;;;;46.20;26.20;;;;;;;6.42;93.70;99219.15;216830;1266;139587;-72
2024/03/03 03:35:11;;;;;;;42.30;27.70;;;;;;;6.40;93.56;99220.81;216765;1266;141028;-72
2024/03/03 03:40:16;;;;;;;53.90;29.80;;;;;;;6.39;93.98;99225.39;217677;1265;139375;-73
2024/03/03 03:45:21;;;;;;;44.90;27.00;;;;;;;6.38;94.07;99215.79;216851;1262;139703;-75
2024/03/03 03:50:25;;;;;;;42.10;26.40;;;;;;;6.37;93.79;99220.35;216959;1262;140584;-76
2024/03/03 03:55:30;;;;;;;53.00;29.50;;;;;;;6.36;93.78;99221.92;217016;1267;139864;-74
2024/03/03 04:00:35;;;;;;;38.20;23.90;;;;;;;6.36;94.24;99224.98;216984;1262;139533;-72
2024/03/03 04:05:39;;;;;;;45.20;28.80;;;;;;;6.35;94.26;99223.80;216745;1262;139841;-75
2024/03/03 04:10:43;;;;;;;62.80;27.30;;;;;;;6.33;94.02;99214.89;216859;1262;139732;-74
2024/03/03 04:15:49;;;;;;;45.60;28.30;;;;;;;6.33;94.36;99220.44;217058;1261;139548;-73
2024/03/03 04:20:53;;;;;;;45.30;26.90;;;;;;;6.32;94.59;99219.10;217899;1262;140998;-73
2024/03/03 04:25:56;;;;;;;49.80;27.60;;;;;;;6.33;93.89;99221.50;216897;1266;140504;-72
2024/03/03 04:31:06;;;;;;;54.50;30.50;;;;;;;6.34;94.30;99224.02;216770;1262;140098;-74
2024/03/03 04:36:14;;;;;;;41.10;24.60;;;;;;;6.36;94.52;99225.70;216693;1266;151747;-73
2024/03/03 04:41:20;;;;;;;48.60;30.50;;;;;;;6.36;94.38;99220.54;216573;1262;139491;-73
2024/03/03 04:46:25;;;;;;;41.00;23.80;;;;;;;6.35;94.08;99214.84;216785;1266;139826;-73
2024/03/03 04:51:29;;;;;;;46.30;30.90;;;;;;;6.34;94.25;99214.69;216574;1263;140147;-74
2024/03/03 04:56:34;;;;;;;40.70;24.70;;;;;;;6.32;94.33;99212.27;216548;1263;139527;-76
2024/03/03 05:01:42;;;;;;;39.60;25.50;;;;;;;6.32;94.39;99209.13;216588;1262;140937;-76
2024/03/03 05:06:48;;;;;;;46.20;28.70;;;;;;;6.32;94.28;99208.59;216650;1262;141069;-76
2024/03/03 05:11:53;;;;;;;43.90;27.50;;;;;;;6.30;94.14;99210.25;216551;1262;140631;-76
2024/03/03 05:16:57;;;;;;;39.40;23.40;;;;;;;6.28;94.08;99217.22;216657;1263;139479;-75
2024/03/03 05:22:03;;;;;;;45.50;28.20;;;;;;;6.26;93.99;99222.33;216540;1262;141130;-76
2024/03/03 05:27:06;;;;;;;39.80;24.20;;;;;;;6.24;93.76;99228.63;216839;1266;140210;-76
2024/03/03 05:32:10;;;;;;;46.50;26.20;;;;;;;6.20;93.53;99234.16;216063;1262;720109;-77
2024/03/03 05:37:15;;;;;;;49.40;31.00;;;;;;;6.15;93.47;99238.31;216661;1262;139490;-78
2024/03/03 05:42:20;;;;;;;41.40;25.40;;;;;;;6.14;93.67;99239.25;216696;1262;140913;-75
2024/03/03 05:47:25;;;;;;;36.20;25.40;;;;;;;6.12;93.73;99245.99;216709;1262;139640;-74
2024/03/03 05:52:30;;;;;;;39.20;22.20;;;;;;;6.15;93.91;99258.63;217004;1259;139548;-75
2024/03/03 05:57:34;;;;;;;43.10;24.10;;;;;;;6.16;93.70;99255.08;217027;1261;139265;-76
2024/03/03 06:02:39;;;;;;;40.20;25.40;;;;;;;6.16;93.51;99255.05;216982;1262;139039;-74
2024/03/03 06:07:44;;;;;;;41.10;23.60;;;;;;;6.20;93.63;99262.86;216945;1259;140729;-74
2024/03/03 06:12:48;;;;;;;46.90;27.00;;;;;;;6.25;93.82;99266.36;219901;1260;139533;-75
2024/03/03 06:17:52;;;;;;;49.90;27.90;;;;;;;6.32;93.74;99261.08;219889;1259;140355;-75
2024/03/03 06:22:56;;;;;;;40.60;25.80;;;;;;;6.43;93.27;99257.42;219880;1259;139912;-75
2024/03/03 06:28:00;;;;;;;39.30;25.50;;;;;;;6.55;93.49;99256.33;218281;1263;139378;-74
2024/03/03 06:33:04;;;;;;;34.70;20.60;;;;;;;6.67;93.34;99251.31;217165;1263;140634;-74
2024/03/03 06:38:08;;;;;;;31.90;20.20;;;;;;;6.81;93.53;99253.95;217015;1260;140835;-75
2024/03/03 06:43:13;;;;;;;41.60;24.90;;;;;;;6.90;92.96;99248.60;217724;1259;140086;-73
2024/03/03 06:48:18;;;;;;;34.70;23.30;;;;;;;7.00;93.48;99244.55;217116;1262;139794;-73
2024/03/03 06:53:22;;;;;;;34.80;23.30;;;;;;;7.14;93.18;99245.55;217598;1262;140451;-74
2024/03/03 06:58:26;;;;;;;40.80;24.70;;;;;;;7.23;92.83;99246.70;217137;1263;139515;-74
2024/03/03 07:08:53;;;;;;;40.00;24.30;;;;;;;7.52;93.06;99251.64;217056;1260;139774;-74
2024/03/03 07:14:00;;;;;;;33.80;23.40;;;;;;;7.69;92.72;99253.08;217101;1259;140335;-73
2024/03/03 07:19:04;;;;;;;31.20;19.20;;;;;;;8.13;92.67;99251.27;217046;1263;140043;-75
2024/03/03 07:24:09;;;;;;;35.20;22.90;;;;;;;9.20;92.49;99244.48;216878;1259;141319;-74
2024/03/03 07:29:27;;;;;;;33.20;25.30;;;;;;;10.50;91.70;99246.17;216925;1260;142378;-76
2024/03/03 07:34:32;;;;;;;41.80;24.40;;;;;;;11.66;90.31;99245.00;216806;1261;140437;-76
2024/03/03 07:39:36;;;;;;;34.10;20.30;;;;;;;12.76;88.56;99247.80;217099;1262;139607;-77
2024/03/03 07:44:40;;;;;;;27.70;18.30;;;;;;;13.21;85.26;99249.92;217008;1259;154251;-78
2024/03/03 07:49:44;;;;;;;26.90;18.10;;;;;;;13.40;84.51;99252.13;216934;1263;140008;-77
2024/03/03 07:54:48;;;;;;;43.10;24.40;;;;;;;13.63;83.51;99253.02;216959;1262;140669;-77
2024/03/03 07:59:53;;;;;;;27.20;19.30;;;;;;;13.45;81.57;99254.96;216948;1259;140808;-75
2024/03/03 08:05:00;;;;;;;31.20;19.30;;;;;;;13.40;82.13;99258.71;216803;1259;140448;-77
2024/03/03 08:10:05;;;;;;;32.10;20.10;;;;;;;13.52;81.80;99253.90;217071;1259;141223;-76
2024/03/03 08:15:09;;;;;;;20.20;14.20;;;;;;;13.67;81.22;99255.22;219227;1259;139463;-75
2024/03/03 08:20:23;;;;;;;23.30;18.10;;;;;;;13.72;80.46;99256.08;218489;1260;141271;-75
2024/03/03 08:25:27;;;;;;;26.80;16.40;;;;;;;13.64;79.71;99253.39;216960;1263;140406;-76
2024/03/03 08:30:32;;;;;;;23.90;16.70;;;;;;;13.61;79.22;99252.79;216968;1263;142090;-74
2024/03/03 08:35:37;;;;;;;37.80;20.10;;;;;;;13.50;78.69;99250.00;216791;1263;142817;-75
2024/03/03 08:40:40;;;;;;;28.40;18.40;;;;;;;13.56;79.05;99244.64;216718;1264;140820;-77
2024/03/03 08:45:44;;;;;;;27.50;18.50;;;;;;;13.61;78.59;99245.08;216898;1263;139980;-77
2024/03/03 08:50:49;;;;;;;27.40;18.30;;;;;;;13.76;79.16;99245.41;217279;1260;142082;-77
2024/03/03 08:55:58;;;;;;;26.00;17.30;;;;;;;13.97;78.92;99242.64;217117;1260;139340;-78
2024/03/03 09:01:02;;;;;;;31.60;19.20;;;;;;;14.13;78.46;99247.33;217047;1260;140592;-79
2024/03/03 09:06:07;;;;;;;27.80;18.50;;;;;;;14.10;77.62;99248.40;217089;1259;139824;-77
2024/03/03 09:11:12;;;;;;;32.10;18.00;;;;;;;14.21;77.44;99249.04;216997;1260;142202;-76
2024/03/03 09:16:15;;;;;;;27.40;17.40;;;;;;;14.16;76.53;99245.61;217364;1260;140791;-76
2024/03/03 09:21:22;;;;;;;24.60;15.10;;;;;;;13.93;74.95;99245.20;217276;1260;229542;-77
2024/03/03 09:26:26;;;;;;;25.10;17.00;;;;;;;13.88;75.78;99248.30;217166;1259;141033;-76
2024/03/03 09:31:30;;;;;;;22.50;18.20;;;;;;;14.05;75.67;99248.57;217118;1259;140917;-77
2024/03/03 09:36:34;;;;;;;18.40;13.10;;;;;;;14.21;75.62;99244.00;217484;1260;140635;-78
2024/03/03 09:41:38;;;;;;;18.40;14.40;;;;;;;14.48;75.56;99249.66;217777;1259;140113;-76
2024/03/03 09:46:44;;;;;;;18.60;11.10;;;;;;;14.68;75.33;99251.54;217071;1263;139904;-76
2024/03/03 09:51:49;;;;;;;21.70;15.00;;;;;;;14.81;74.49;99247.90;218139;1259;140558;-77
2024/03/03 09:56:56;;;;;;;17.10;12.20;;;;;;;14.91;74.17;99250.94;217100;1261;141331;-79
2024/03/03 10:02:01;;;;;;;17.70;14.20;;;;;;;15.10;74.07;99247.29;218136;1259;140022;-77
2024/03/03 10:07:09;;;;;;;18.90;12.90;;;;;;;15.37;73.88;99246.17;217795;1263;140227;-75
2024/03/03 10:12:13;;;;;;;22.10;13.70;;;;;;;15.59;73.07;99244.14;217617;1261;141469;-75
2024/03/03 10:17:18;;;;;;;16.70;13.40;;;;;;;15.67;72.53;99239.18;217160;1260;140368;-74
2024/03/03 10:22:22;;;;;;;18.70;11.80;;;;;;;15.76;72.42;99240.10;217144;1259;140140;-75
2024/03/03 10:27:26;;;;;;;15.40;10.80;;;;;;;15.81;71.27;99240.28;217182;1261;140534;-75
2024/03/03 10:32:30;;;;;;;12.40;9.10;;;;;;;15.70;70.45;99237.61;217514;1263;139714;-76
2024/03/03 10:37:35;;;;;;;15.80;11.50;;;;;;;15.68;69.89;99229.50;217169;1263;140357;-77
2024/03/03 10:42:39;;;;;;;12.80;8.90;;;;;;;15.71;69.83;99226.42;217464;1259;139384;-78
2024/03/03 10:47:43;;;;;;;15.40;11.20;;;;;;;15.78;69.40;99221.96;217263;1259;138826;-75
2024/03/03 10:52:52;;;;;;;11.70;9.80;;;;;;;15.84;69.09;99222.41;217116;1263;140228;-76
2024/03/03 10:58:01;;;;;;;10.00;7.50;;;;;;;16.01;69.16;99213.27;216992;1265;139152;-79
2024/03/03 11:03:09;;;;;;;11.10;8.30;;;;;;;16.17;68.85;99211.35;216795;1264;140590;-75
2024/03/03 11:08:13;;;;;;;12.80;8.30;;;;;;;16.19;67.56;99205.52;218680;1259;139225;-76
2024/03/03 11:13:18;;;;;;;9.40;7.70;;;;;;;16.13;67.15;99194.40;217273;1263;139899;-77
2024/03/03 11:18:24;;;;;;;7.80;7.00;;;;;;;16.10;66.94;99186.15;218068;1263;139670;-78
2024/03/03 11:23:41;;;;;;;7.00;5.30;;;;;;;16.30;67.13;99184.52;216804;1263;139623;-77
2024/03/03 11:28:51;;;;;;;8.70;6.40;;;;;;;16.50;66.50;99175.87;216729;1263;139736;-77
2024/03/03 11:33:58;;;;;;;8.50;7.40;;;;;;;16.59;66.13;99167.14;217610;1260;141266;-77
2024/03/03 11:39:15;;;;;;;10.40;7.00;;;;;;;16.69;65.90;99162.58;216814;1259;139520;-77
2024/03/03 11:44:35;;;;;;;9.70;6.90;;;;;;;16.76;65.24;99156.76;216840;1265;140201;-78
2024/03/03 11:49:41;;;;;;;6.30;5.70;;;;;;;16.76;64.69;99149.90;216979;1259;139845;-77
2024/03/03 11:54:52;;;;;;;6.60;5.20;;;;;;;16.85;64.59;99146.27;216999;1260;139121;-78
2024/03/03 12:00:13;;;;;;;13.60;6.80;;;;;;;16.84;63.77;99142.89;216649;1264;140223;-78
2024/03/03 12:05:17;;;;;;;7.90;5.60;;;;;;;16.87;63.81;99144.38;218993;1263;140683;-77
2024/03/03 12:10:27;;;;;;;9.00;5.00;;;;;;;16.99;63.76;99140.44;220043;1261;140230;-78
2024/03/03 12:15:32;;;;;;;6.10;4.80;;;;;;;17.07;62.95;99135.27;217639;1259;139752;-77
2024/03/03 12:20:37;;;;;;;7.10;6.30;;;;;;;17.10;62.77;99131.45;216867;1259;140805;-78
2024/03/03 12:25:42;;;;;;;9.60;6.40;;;;;;;17.11;62.33;99122.98;216861;1259;138819;-77
2024/03/03 12:30:46;;;;;;;6.60;4.90;;;;;;;17.09;61.86;99119.39;216665;1261;140167;-77
2024/03/03 12:35:52;;;;;;;10.30;5.20;;;;;;;16.93;61.26;99111.83;216957;1263;139067;-77
2024/03/03 12:40:58;;;;;;;8.10;5.30;;;;;;;16.94;61.60;99106.95;216630;1263;139564;-77
2024/03/03 12:46:05;;;;;;;12.50;6.30;;;;;;;16.91;60.93;99098.55;216895;1263;139439;-76
2024/03/03 12:51:13;;;;;;;7.30;6.30;;;;;;;16.78;60.77;99097.72;216755;1263;140095;-79
2024/03/03 12:56:18;;;;;;;9.50;6.40;;;;;;;16.80;60.78;99087.40;216574;1264;139284;-76
2024/03/03 13:01:24;;;;;;;7.50;5.80;;;;;;;16.82;60.89;99077.94;216796;1263;140232;-77
2024/03/03 13:06:29;;;;;;;13.20;9.20;;;;;;;16.79;60.35;99072.94;216808;1261;139517;-75
2024/03/03 13:11:34;;;;;;;11.70;7.20;;;;;;;16.65;60.02;99059.51;216840;1260;139694;-77
2024/03/03 13:16:39;;;;;;;12.40;6.50;;;;;;;16.56;60.30;99056.91;216785;1263;139444;-77
2024/03/03 13:21:48;;;;;;;13.50;9.70;;;;;;;16.52;60.11;99054.45;216685;1261;139834;-78
2024/03/03 13:26:55;;;;;;;10.70;9.50;;;;;;;16.44;60.30;99050.16;217061;1263;139454;-76
2024/03/03 13:31:59;;;;;;;13.40;8.40;;;;;;;16.42;60.80;99050.94;216845;1261;139855;-77
2024/03/03 13:37:04;;;;;;;10.60;7.50;;;;;;;16.34;60.38;99051.95;216782;1260;140522;-76
2024/03/03 13:42:11;;;;;;;11.80;9.20;;;;;;;16.11;60.24;99055.67;216784;1261;139619;-77
2024/03/03 13:47:16;;;;;;;20.80;16.40;;;;;;;16.13;61.02;99054.86;217730;1261;139187;-75
2024/03/03 13:52:21;;;;;;;30.30;23.10;;;;;;;16.17;61.18;99055.19;219702;1263;140446;-76
2024/03/03 13:57:25;;;;;;;35.20;17.90;;;;;;;16.09;61.16;99053.45;216973;1263;139382;-77
2024/03/03 14:02:29;;;;;;;38.10;25.90;;;;;;;15.96;61.44;99052.67;217871;1260;139758;-76
2024/03/03 14:07:34;;;;;;;24.90;17.10;;;;;;;15.83;61.62;99063.10;220031;1261;139085;-76
2024/03/03 14:12:38;;;;;;;30.10;21.90;;;;;;;15.74;61.97;99059.64;219911;1261;139515;-76
2024/03/03 14:17:46;;;;;;;16.90;14.90;;;;;;;15.62;62.13;99057.17;218238;1260;140885;-76
2024/03/03 14:22:51;;;;;;;25.90;15.50;;;;;;;15.48;62.44;99052.35;217909;1261;140275;-76
2024/03/03 14:27:58;;;;;;;34.80;24.40;;;;;;;15.21;62.53;99055.86;216948;1261;139569;-76
2024/03/03 14:33:15;;;;;;;23.80;16.80;;;;;;;14.97;63.16;99061.69;218119;1261;142471;-77
2024/03/03 14:38:19;;;;;;;28.10;16.30;;;;;;;14.83;63.34;99063.99;216720;1260;139668;-77
2024/03/03 14:43:23;;;;;;;34.50;20.60;;;;;;;14.63;63.51;99068.45;216684;1261;139688;-77
2024/03/03 14:48:28;;;;;;;36.10;22.30;;;;;;;14.47;63.99;99069.45;217854;1261;139509;-75
2024/03/03 14:53:34;;;;;;;24.50;17.30;;;;;;;14.32;64.11;99072.52;216801;1264;140064;-76
2024/03/03 14:58:38;;;;;;;25.40;16.50;;;;;;;14.15;64.43;99071.77;216660;1263;139677;-75
2024/03/03 15:03:42;;;;;;;22.00;16.00;;;;;;;14.08;64.83;99066.00;217015;1263;139000;-77
2024/03/03 15:08:47;;;;;;;34.00;19.10;;;;;;;13.93;64.80;99070.67;216889;1261;140473;-75
2024/03/03 15:13:52;;;;;;;34.60;20.00;;;;;;;13.74;64.97;99068.47;217846;1260;141925;-75
2024/03/03 15:19:15;;;;;;;131.50;60.60;;;;;;;13.58;65.29;99068.48;216885;1260;140113;-78
2024/03/03 15:24:19;;;;;;;28.30;18.90;;;;;;;13.42;65.63;99079.02;216857;1263;138831;-77
2024/03/03 15:29:30;;;;;;;24.80;15.60;;;;;;;13.30;66.05;99075.11;216778;1260;139661;-77
2024/03/03 15:34:35;;;;;;;26.10;18.00;;;;;;;13.17;65.96;99073.60;216714;1260;140412;-77
2024/03/03 15:39:41;;;;;;;30.00;19.10;;;;;;;13.06;66.30;99075.13;216969;1260;143294;-76
2024/03/03 15:44:47;;;;;;;24.30;15.60;;;;;;;12.92;66.35;99079.02;216955;1263;139872;-75
2024/03/03 15:49:53;;;;;;;;;;;;;;;12.74;66.63;99075.85;216680;1264;224070;-76
2024/03/03 15:54:58;;;;;;;21.50;15.40;;;;;;;12.58;66.74;99070.72;216968;1263;125576;-75
2024/03/03 16:00:06;;;;;;;24.60;15.20;;;;;;;12.42;66.99;99067.05;216775;1259;140076;-76
2024/03/03 16:05:11;;;;;;;28.70;17.10;;;;;;;12.27;67.27;99069.82;216699;1259;140758;-76
2024/03/03 16:10:15;;;;;;;22.70;15.90;;;;;;;12.11;67.74;99068.64;216974;1261;140034;-74
2024/03/03 16:15:21;;;;;;;25.70;17.50;;;;;;;11.99;68.01;99070.52;216908;1261;140477;-77
2024/03/03 16:20:25;;;;;;;26.80;18.60;;;;;;;11.83;68.47;99068.73;216651;1263;141271;-76
2024/03/03 16:25:30;;;;;;;19.40;15.10;;;;;;;11.71;68.54;99066.48;216623;1264;141112;-76
2024/03/03 16:30:34;;;;;;;22.40;14.90;;;;;;;11.58;68.84;99073.39;217404;1259;140539;-75
2024/03/03 16:35:38;;;;;;;25.40;16.20;;;;;;;11.42;68.86;99073.91;216710;1261;140414;-75
2024/03/03 16:40:43;;;;;;;21.50;15.80;;;;;;;11.29;69.28;99072.45;216776;1262;140454;-75
2024/03/03 16:45:48;;;;;;;25.50;14.70;;;;;;;11.18;69.63;99076.30;217428;1260;140659;-76
2024/03/03 16:50:52;;;;;;;26.90;15.90;;;;;;;11.08;69.77;99080.05;216975;1260;140128;-77
2024/03/03 16:55:57;;;;;;;24.30;16.20;;;;;;;10.98;69.97;99079.81;216722;1259;141568;-76
2024/03/03 17:01:02;;;;;;;27.80;18.80;;;;;;;10.85;70.01;99082.15;216762;1261;140148;-76
2024/03/03 17:06:10;;;;;;;32.60;20.80;;;;;;;10.76;70.33;99081.19;217169;1261;140705;-76
2024/03/03 17:11:17;;;;;;;38.40;23.40;;;;;;;10.67;70.78;99084.11;216692;1261;140898;-76
2024/03/03 17:16:21;;;;;;;30.80;21.10;;;;;;;10.57;71.00;99082.51;216690;1260;140771;-76
2024/03/03 17:21:26;;;;;;;36.80;24.50;;;;;;;10.49;71.24;99081.34;216757;1260;140115;-78
2024/03/03 17:26:31;;;;;;;41.30;22.20;;;;;;;10.43;71.47;99084.95;216779;1263;142284;-74
2024/03/03 17:31:35;;;;;;;27.00;19.90;;;;;;;10.35;71.86;99082.86;216531;1259;408604;-73
2024/03/03 17:36:40;;;;;;;36.90;23.90;;;;;;;10.24;71.84;99084.08;216605;1261;140168;-75
2024/03/03 17:41:44;;;;;;;32.80;24.30;;;;;;;10.12;72.31;99084.29;218414;1259;139569;-76
2024/03/03 17:46:48;;;;;;;32.80;24.00;;;;;;;10.04;72.61;99084.09;219873;1259;140975;-74
2024/03/03 17:51:54;;;;;;;35.70;23.70;;;;;;;9.99;72.70;99088.71;219763;1259;140455;-75
2024/03/03 17:56:58;;;;;;;39.70;22.60;;;;;;;9.92;72.71;99086.64;219500;1259;140981;-74
2024/03/03 18:02:03;;;;;;;34.40;21.90;;;;;;;9.80;72.90;99088.35;217065;1263;140648;-74
2024/03/03 18:07:06;;;;;;;45.30;27.80;;;;;;;9.67;73.19;99088.80;219137;1261;142688;-74
2024/03/03 18:12:11;;;;;;;38.70;25.70;;;;;;;9.55;73.34;99087.45;216644;1259;139456;-75
2024/03/03 18:17:15;;;;;;;41.00;26.30;;;;;;;9.47;73.66;99090.20;216950;1263;140863;-74
2024/03/03 18:22:19;;;;;;;35.20;24.60;;;;;;;9.38;73.95;99086.94;216673;1261;140769;-74
2024/03/03 18:27:24;;;;;;;34.30;24.70;;;;;;;9.29;74.19;99091.67;216893;1263;233315;-73
2024/03/03 18:32:29;;;;;;;36.60;24.80;;;;;;;9.19;74.48;99098.63;217107;1259;140629;-73
2024/03/03 18:37:37;;;;;;;38.60;26.50;;;;;;;9.06;74.76;99101.79;216549;1263;141622;-75
2024/03/03 18:42:41;;;;;;;46.10;27.50;;;;;;;8.98;75.15;99099.14;216793;1263;139708;-74
2024/03/03 18:47:45;;;;;;;39.50;25.20;;;;;;;8.92;75.34;99097.23;216686;1259;139281;-73
2024/03/03 18:52:51;;;;;;;33.60;22.50;;;;;;;8.85;75.58;99095.09;216672;1263;139837;-74
2024/03/03 18:57:57;;;;;;;32.30;24.80;;;;;;;8.76;75.62;99096.95;216754;1259;139569;-73
2024/03/03 19:03:02;;;;;;;39.50;26.60;;;;;;;8.61;75.79;99102.26;216845;1260;141127;-74
2024/03/03 19:08:07;;;;;;;39.80;25.10;;;;;;;8.51;76.20;99103.02;217771;1259;139681;-73
2024/03/03 19:13:13;;;;;;;40.40;26.10;;;;;;;8.44;76.66;99103.79;217493;1260;139813;-74
2024/03/03 19:18:18;;;;;;;44.00;30.10;;;;;;;8.37;76.97;99100.84;216624;1261;141068;-74
2024/03/03 19:23:22;;;;;;;46.60;30.60;;;;;;;8.34;77.21;99103.59;218876;1259;140116;-74
2024/03/03 19:28:27;;;;;;;46.40;30.00;;;;;;;8.31;77.31;99102.12;216657;1259;139907;-73
2024/03/03 19:33:32;;;;;;;50.00;28.90;;;;;;;8.24;77.37;99108.31;216809;1260;139256;-75
2024/03/03 19:38:37;;;;;;;43.70;28.30;;;;;;;8.17;77.41;99110.71;216811;1259;140085;-74
2024/03/03 19:43:44;;;;;;;50.90;30.00;;;;;;;8.13;77.78;99113.06;220044;1260;139882;-75
2024/03/03 19:48:49;;;;;;;44.90;27.20;;;;;;;8.09;77.66;99121.35;218237;1260;139171;-74
2024/03/03 19:53:54;;;;;;;52.90;27.30;;;;;;;8.05;77.74;99124.20;216703;1260;140698;-74
2024/03/03 19:59:03;;;;;;;44.80;26.80;;;;;;;8.01;77.85;99126.23;216702;1259;141595;-74
2024/03/03 20:04:07;;;;;;;45.20;29.40;;;;;;;7.96;78.21;99123.59;217715;1261;140805;-74
2024/03/03 20:09:12;;;;;;;40.80;27.90;;;;;;;7.95;78.39;99122.77;216713;1259;139949;-74
2024/03/03 20:14:17;;;;;;;43.00;28.60;;;;;;;7.96;78.64;99119.02;216876;1259;139354;-73
2024/03/03 20:19:21;;;;;;;44.70;28.90;;;;;;;7.98;79.07;99118.20;216699;1259;140203;-74
2024/03/03 20:24:31;;;;;;;35.30;25.50;;;;;;;8.00;79.39;99120.00;217070;1260;154536;-73
2024/03/03 20:29:36;;;;;;;37.70;25.40;;;;;;;8.01;79.14;99123.52;217161;1263;140605;-73
2024/03/03 20:34:40;;;;;;;45.90;27.90;;;;;;;8.01;79.67;99126.22;216710;1263;140833;-73
2024/03/03 20:39:48;;;;;;;45.70;27.30;;;;;;;8.01;79.66;99129.45;216675;1263;140125;-74
2024/03/03 20:44:52;;;;;;;48.80;25.40;;;;;;;7.99;79.59;99122.30;217220;1260;139687;-74
2024/03/03 20:49:56;;;;;;;34.80;25.00;;;;;;;7.99;79.94;99124.59;216712;1263;139818;-75
2024/03/03 20:55:00;;;;;;;32.80;22.70;;;;;;;7.97;80.00;99126.30;216864;1263;139245;-73
2024/03/03 21:00:06;;;;;;;44.00;26.60;;;;;;;7.94;80.07;99122.16;216953;1259;140314;-74
2024/03/03 21:05:10;;;;;;;42.10;23.50;;;;;;;7.94;80.12;99116.53;216527;1263;140673;-76
2024/03/03 21:10:16;;;;;;;40.50;24.10;;;;;;;7.95;80.42;99115.65;217836;1262;139814;-74
2024/03/03 21:15:21;;;;;;;43.40;26.20;;;;;;;7.95;80.55;99116.30;216907;1259;139714;-74
2024/03/03 21:20:26;;;;;;;44.40;25.50;;;;;;;7.97;80.60;99118.82;216999;1259;140550;-76
2024/03/03 21:25:31;;;;;;;43.00;26.60;;;;;;;7.99;80.70;99119.97;216911;1259;140871;-76
2024/03/03 21:30:35;;;;;;;45.90;27.80;;;;;;;7.97;80.73;99120.25;216764;1260;139944;-78
2024/03/03 21:35:40;;;;;;;43.40;26.60;;;;;;;7.96;80.90;99121.14;216950;1263;140402;-75
2024/03/03 21:40:44;;;;;;;44.50;26.90;;;;;;;7.95;80.96;99116.44;216819;1261;140606;-73
2024/03/03 21:45:48;;;;;;;48.70;27.90;;;;;;;7.94;81.14;99117.19;218204;1262;141870;-74
2024/03/03 21:50:52;;;;;;;47.70;27.70;;;;;;;7.93;81.11;99121.00;216881;1261;139568;-75
2024/03/03 21:55:56;;;;;;;46.50;27.00;;;;;;;7.95;81.18;99122.60;216955;1259;140362;-75
2024/03/03 22:01:01;;;;;;;50.90;30.70;;;;;;;7.94;81.14;99122.74;217274;1259;139664;-73
2024/03/03 22:06:05;;;;;;;36.90;25.80;;;;;;;7.94;81.11;99125.67;217925;1259;140909;-74
2024/03/03 22:11:10;;;;;;;50.50;28.70;;;;;;;7.93;81.10;99122.89;217299;1259;141094;-73
2024/03/03 22:16:14;;;;;;;50.70;31.20;;;;;;;7.90;81.17;99123.63;216722;1260;142261;-72
2024/03/03 22:21:19;;;;;;;42.80;28.80;;;;;;;7.89;81.13;99117.07;216865;1263;141512;-75
2024/03/03 22:26:23;;;;;;;42.60;25.30;;;;;;;7.87;81.25;99122.38;216807;1260;139379;-72
2024/03/03 22:31:28;;;;;;;37.70;24.60;;;;;;;7.83;81.20;99121.11;217344;1260;140537;-74
2024/03/03 22:36:32;;;;;;;37.40;26.70;;;;;;;7.80;81.06;99125.71;216596;1263;141215;-73
2024/03/03 22:41:36;;;;;;;41.10;27.60;;;;;;;7.78;81.14;99125.31;216651;1263;141528;-76
2024/03/03 22:46:42;;;;;;;48.80;31.50;;;;;;;7.74;81.29;99123.20;216820;1262;140137;-73
2024/03/03 22:51:46;;;;;;;52.10;29.40;;;;;;;7.73;81.15;99117.34;216776;1259;141230;-72
2024/03/03 22:56:51;;;;;;;51.60;29.70;;;;;;;7.72;81.13;99113.80;216997;1261;140974;-73
2024/03/03 23:01:57;;;;;;;55.00;33.50;;;;;;;7.67;81.12;99109.83;216820;1263;139501;-73
2024/03/03 23:07:02;;;;;;;;;;;;;;;7.62;81.12;99108.98;217007;1261;140316;-73
2024/03/03 23:12:08;;;;;;;45.90;29.60;;;;;;;7.54;80.95;99108.47;217084;1261;126004;-73